Time;durP1;ratioP1;P1;durP2;ratioP2;P2;SDS_P1;SDS_P2;PMS_P1;PMS_P2;Temp;Humidity;BMP_temperature;BMP_pressure;BME280_temperature;BME280_humidity;BME280_pressure;Samples;Min_cycle;Max_cycle;Signal;HPM_P1;HPM_P2
2021/09/28 00:03:45;;;;;;;;;;;;;;;;;;10317714;28;20320;-57
2021/09/28 00:08:43;;;;;;;;;;;;;;;;;;10316825;28;20304;-57
2021/09/28 00:13:41;;;;;;;;;;;;;;;;;;10317587;28;20395;-57
2021/09/28 00:18:39;;;;;;;;;;;;;;;;;;10316751;28;20361;-56
2021/09/28 00:23:37;;;;;;;;;;;;;;;;;;10317322;28;20400;-57
2021/09/28 00:28:35;;;;;;;;;;;;;;;;;;10316892;28;20274;-58
2021/09/28 00:33:33;;;;;;;;;;;;;;;;;;10317112;28;20514;-58
2021/09/28 00:38:31;;;;;;;;;;;;;;;;;;10316977;28;19921;-57
2021/09/28 00:43:29;;;;;;;;;;;;;;;;;;10316975;28;19921;-58
2021/09/28 00:48:27;;;;;;;;;;;;;;;;;;10316126;28;19924;-57
2021/09/28 00:53:25;;;;;;;;;;;;;;;;;;10316675;28;19921;-57
2021/09/28 00:58:23;;;;;;;;;;;;;;;;;;10322961;28;19967;-57
2021/09/28 01:03:21;;;;;;;;;;;;;;;;;;10324119;28;19964;-56
2021/09/28 01:08:19;;;;;;;;;;;;;;;;;;10323275;28;19932;-52
2021/09/28 01:13:17;;;;;;;;;;;;;;;;;;10322752;28;19920;-58
2021/09/28 01:18:15;;;;;;;;;;;;;;;;;;10322913;28;19924;-57
2021/09/28 01:23:13;;;;;;;;;;;;;;;;;;10323492;28;19975;-57
2021/09/28 01:28:11;;;;;;;;;;;;;;;;;;10323112;28;19968;-57
2021/09/28 01:33:09;;;;;;;;;;;;;;;;;;10322310;28;20416;-58
2021/09/28 01:38:07;;;;;;;;;;;;;;;;;;10322564;28;20418;-58
2021/09/28 01:43:05;;;;;;;;;;;;;;;;;;10322307;28;19975;-56
2021/09/28 01:48:03;;;;;;;;;;;;;;;;;;10321664;28;19920;-57
2021/09/28 01:53:01;;;;;;;;;;;;;;;;;;10322072;28;19943;-59
2021/09/28 01:57:59;;;;;;;;;;;;;;;;;;10321972;28;19967;-57
2021/09/28 02:03:00;;;;;;;;;;;;;;;;;;10321787;28;19986;-58
2021/09/28 02:07:58;;;;;;;;;;;;;;;;;;10320918;28;19924;-58
2021/09/28 02:12:56;;;;;;;;;;;;;;;;;;10321373;28;20352;-57
2021/09/28 02:17:54;;;;;;;;;;;;;;;;;;10321240;28;19924;-56
2021/09/28 02:22:52;;;;;;;;;;;;;;;;;;10320154;28;19968;-57
2021/09/28 02:27:50;;;;;;;;;;;;;;;;;;10319904;28;19920;-57
2021/09/28 02:32:48;;;;;;;;;;;;;;;;;;10320546;28;19931;-58
2021/09/28 02:37:46;;;;;;;;;;;;;;;;;;10319886;28;20377;-58
2021/09/28 02:42:44;;;;;;;;;;;;;;;;;;10318766;28;19959;-58
2021/09/28 02:47:42;;;;;;;;;;;;;;;;;;10318776;28;20298;-58
2021/09/28 02:52:40;;;;;;;;;;;;;;;;;;10319642;28;20407;-56
2021/09/28 02:57:38;;;;;;;;;;;;;;;;;;10318834;28;20244;-56
2021/09/28 03:02:36;;;;;;;;;;;;;;;;;;10318667;28;19964;-56
2021/09/28 03:07:34;;;;;;;;;;;;;;;;;;10319101;28;20348;-58
2021/09/28 03:12:32;;;;;;;;;;;;;;;;;;10318421;28;19927;-57
2021/09/28 03:17:30;;;;;;;;;;;;;;;;;;10318370;28;19927;-58
2021/09/28 03:22:28;;;;;;;;;;;;;;;;;;10317509;28;19978;-58
2021/09/28 03:27:26;;;;;;;;;;;;;;;;;;10318587;28;19927;-57
2021/09/28 03:32:24;;;;;;;;;;;;;;;;;;10318384;28;20361;-58
2021/09/28 03:37:22;;;;;;;;;;;;;;;;;;10314392;28;20358;-58
2021/09/28 03:42:20;;;;;;;;;;;;;;;;;;10314438;28;19967;-58
2021/09/28 03:47:18;;;;;;;;;;;;;;;;;;10314280;28;19947;-57
2021/09/28 03:52:16;;;;;;;;;;;;;;;;;;10316730;28;20404;-57
2021/09/28 03:57:14;;;;;;;;;;;;;;;;;;10316866;28;20388;-58
2021/09/28 04:02:12;;;;;;;;;;;;;;;;;;10316953;28;19964;-56
2021/09/28 04:07:10;;;;;;;;;;;;;;;;;;10316746;28;19928;-56
2021/09/28 04:12:08;;;;;;;;;;;;;;;;;;10317151;28;19963;-54
2021/09/28 04:17:06;;;;;;;;;;;;;;;;;;10316229;28;19924;-58
2021/09/28 04:22:04;;;;;;;;;;;;;;;;;;10316976;28;19979;-56
2021/09/28 04:27:02;;;;;;;;;;;;;;;;;;10316278;28;19920;-58
2021/09/28 04:32:00;;;;;;;;;;;;;;;;;;10321336;28;19928;-58
2021/09/28 04:36:58;;;;;;;;;;;;;;;;;;10324567;28;19920;-56
2021/09/28 04:41:56;;;;;;;;;;;;;;;;;;10306949;28;19927;-57
2021/09/28 04:46:54;;;;;;;;;;;;;;;;;;10323862;28;19932;-58
2021/09/28 04:51:52;;;;;;;;;;;;;;;;;;10324446;28;19944;-58
2021/09/28 04:56:50;;;;;;;;;;;;;;;;;;10320239;28;19967;-57
2021/09/28 05:01:48;;;;;;;;;;;;;;;;;;10317484;28;19967;-58
2021/09/28 05:06:46;;;;;;;;;;;;;;;;;;10322529;28;19943;-56
2021/09/28 05:11:44;;;;;;;;;;;;;;;;;;10321002;28;20349;-58
2021/09/28 05:16:43;;;;;;;;;;;;;;;;;;10319671;28;19921;-58
2021/09/28 05:21:41;;;;;;;;;;;;;;;;;;10322155;28;19967;-58
2021/09/28 05:26:39;;;;;;;;;;;;;;;;;;10320636;28;20024;-58
2021/09/28 05:31:37;;;;;;;;;;;;;;;;;;10321526;28;19920;-57
2021/09/28 05:36:35;;;;;;;;;;;;;;;;;;10321195;28;20333;-57
2021/09/28 05:41:33;;;;;;;;;;;;;;;;;;10320110;28;19986;-58
2021/09/28 05:46:31;;;;;;;;;;;;;;;;;;10319901;28;20282;-57
2021/09/28 05:51:29;;;;;;;;;;;;;;;;;;10320428;28;19963;-57
2021/09/28 05:56:27;;;;;;;;;;;;;;;;;;10320690;28;19920;-59
2021/09/28 06:01:25;;;;;;;;;;;;;;;;;;10319867;28;19970;-58
2021/09/28 06:06:27;;;;;;;;;;;;;;;;;;10319914;28;19920;-61
2021/09/28 06:11:25;;;;;;;;;;;;;;;;;;10320100;28;20385;-58
2021/09/28 06:16:23;;;;;;;;;;;;;;;;;;10318730;28;19948;-58
2021/09/28 06:21:21;;;;;;;;;;;;;;;;;;10320849;28;20415;-58
2021/09/28 06:26:20;;;;;;;;;;;;;;;;;;10316714;28;19966;-57
2021/09/28 06:31:18;;;;;;;;;;;;;;;;;;10316060;28;19952;-58
2021/09/28 06:36:16;;;;;;;;;;;;;;;;;;10316032;28;20033;-57
2021/09/28 06:41:14;;;;;;;;;;;;;;;;;;10319801;28;20718;-58
2021/09/28 06:46:12;;;;;;;;;;;;;;;;;;10319481;28;20305;-58
2021/09/28 06:51:10;;;;;;;;;;;;;;;;;;10319307;28;19925;-58
2021/09/28 06:56:08;;;;;;;;;;;;;;;;;;10319432;28;20309;-58
2021/09/28 07:01:06;;;;;;;;;;;;;;;;;;10319006;28;19963;-58
2021/09/28 07:06:04;;;;;;;;;;;;;;;;;;10318668;28;19932;-57
2021/09/28 07:11:03;;;;;;;;;;;;;;;;;;10318410;28;19921;-58
2021/09/28 07:16:01;;;;;;;;;;;;;;;;;;10318517;28;19971;-58
2021/09/28 07:20:59;;;;;;;;;;;;;;;;;;10317927;28;19970;-58
2021/09/28 07:25:58;;;;;;;;;;;;;;;;;;10318271;28;19921;-58
2021/09/28 07:30:55;;;;;;;;;;;;;;;;;;10318646;28;19920;-58
2021/09/28 07:35:54;;;;;;;;;;;;;;;;;;10317868;28;19921;-59
2021/09/28 07:40:52;;;;;;;;;;;;;;;;;;10317618;28;19920;-56
2021/09/28 07:45:50;;;;;;;;;;;;;;;;;;10317225;28;19931;-58
2021/09/28 07:50:48;;;;;;;;;;;;;;;;;;10317396;28;19924;-58
2021/09/28 07:55:53;;;;;;;;;;;;;;;;;;10316991;28;20277;-58
2021/09/28 08:00:53;;;;;;;;;;;;;;;;;;10316968;28;20305;-59
2021/09/28 08:05:55;;;;;;;;;;;;;;;;;;10315968;28;19920;-59
2021/09/28 08:10:55;;;;;;;;;;;;;;;;;;10316273;28;20147;-58
2021/09/28 08:15:55;;;;;;;;;;;;;;;;;;10315483;28;19924;-58
2021/09/28 08:20:54;;;;;;;;;;;;;;;;;;10316808;28;19952;-58
2021/09/28 08:29:08;;;;;;;;;;;;;;;;;;10316630;28;19920;-59
2021/09/28 08:31:18;;;;;;;;;;;;;;;;;;10316448;28;19925;-58
2021/09/28 08:36:16;;;;;;;;;;;;;;;;;;10315750;28;19967;-57
2021/09/28 08:41:15;;;;;;;;;;;;;;;;;;10315652;28;19924;-57
2021/09/28 08:46:13;;;;;;;;;;;;;;;;;;10316693;28;19920;-58
2021/09/28 08:51:11;;;;;;;;;;;;;;;;;;10315323;28;20373;-57
2021/09/28 08:56:11;;;;;;;;;;;;;;;;;;10316393;28;19921;-58
2021/09/28 09:01:09;;;;;;;;;;;;;;;;;;10315423;28;19927;-57
2021/09/28 09:06:08;;;;;;;;;;;;;;;;;;10315824;28;20365;-58
2021/09/28 09:11:06;;;;;;;;;;;;;;;;;;10315388;28;20381;-58
2021/09/28 09:16:06;;;;;;;;;;;;;;;;;;10316104;28;20400;-58
2021/09/28 09:21:04;;;;;;;;;;;;;;;;;;10323105;28;20107;-58
2021/09/28 09:26:04;;;;;;;;;;;;;;;;;;10322789;28;19959;-58
2021/09/28 09:31:02;;;;;;;;;;;;;;;;;;10322578;28;19927;-58
2021/09/28 09:36:01;;;;;;;;;;;;;;;;;;10322003;28;19920;-58
2021/09/28 09:40:59;;;;;;;;;;;;;;;;;;10321488;28;19920;-58
2021/09/28 09:45:57;;;;;;;;;;;;;;;;;;10321676;28;19951;-58
2021/09/28 09:50:55;;;;;;;;;;;;;;;;;;10321983;28;19927;-58
2021/09/28 09:55:53;;;;;;;;;;;;;;;;;;10321056;28;19943;-58
2021/09/28 10:00:53;;;;;;;;;;;;;;;;;;10321358;28;19920;-58
2021/09/28 10:05:51;;;;;;;;;;;;;;;;;;10321236;28;19960;-59
2021/09/28 10:10:49;;;;;;;;;;;;;;;;;;10320862;28;19959;-58
2021/09/28 10:15:47;;;;;;;;;;;;;;;;;;10319881;28;19928;-59
2021/09/28 10:20:46;;;;;;;;;;;;;;;;;;10320653;28;19924;-59
2021/09/28 10:25:45;;;;;;;;;;;;;;;;;;10320082;28;19970;-58
2021/09/28 10:30:43;;;;;;;;;;;;;;;;;;10319661;28;20289;-58
2021/09/28 10:35:42;;;;;;;;;;;;;;;;;;10320058;28;20308;-58
2021/09/28 10:40:40;;;;;;;;;;;;;;;;;;10319473;28;19951;-57
2021/09/28 10:45:38;;;;;;;;;;;;;;;;;;10319211;28;19955;-57
2021/09/28 10:50:42;;;;;;;;;;;;;;;;;;10318689;28;19925;-58
2021/09/28 10:55:40;;;;;;;;;;;;;;;;;;10319144;28;19935;-58
2021/09/28 11:00:38;;;;;;;;;;;;;;;;;;10318840;28;19920;-58
2021/09/28 11:05:37;;;;;;;;;;;;;;;;;;10318935;28;20346;-58
2021/09/28 11:10:36;;;;;;;;;;;;;;;;;;10318125;28;20233;-58
2021/09/28 11:15:34;;;;;;;;;;;;;;;;;;10317721;28;20376;-58
2021/09/28 11:20:32;;;;;;;;;;;;;;;;;;10318337;28;19928;-58
2021/09/28 11:25:32;;;;;;;;;;;;;;;;;;10317921;28;19959;-58
2021/09/28 11:30:33;;;;;;;;;;;;;;;;;;10317038;28;20390;-59
2021/09/28 11:35:31;;;;;;;;;;;;;;;;;;10317606;28;19927;-59
2021/09/28 11:40:30;;;;;;;;;;;;;;;;;;10316463;28;20305;-58
2021/09/28 11:45:29;;;;;;;;;;;;;;;;;;10316690;28;19947;-59
2021/09/28 11:50:27;;;;;;;;;;;;;;;;;;10317418;28;19920;-58
2021/09/28 11:55:25;;;;;;;;;;;;;;;;;;10317270;28;19921;-58
2021/09/28 12:00:23;;;;;;;;;;;;;;;;;;10316849;28;19970;-58
2021/09/28 12:10:26;;;;;;;;;;;;;;;;;;10317575;28;19921;-59
2021/09/28 12:15:24;;;;;;;;;;;;;;;;;;10316801;28;19924;-59
2021/09/28 12:20:22;;;;;;;;;;;;;;;;;;10316659;28;19924;-59
2021/09/28 12:25:22;;;;;;;;;;;;;;;;;;10316619;28;20389;-59
2021/09/28 12:30:20;;;;;;;;;;;;;;;;;;10316957;28;19920;-59
2021/09/28 12:35:18;;;;;;;;;;;;;;;;;;10316533;28;19931;-58
2021/09/28 12:40:16;;;;;;;;;;;;;;;;;;10316439;28;19920;-58
2021/09/28 12:45:14;;;;;;;;;;;;;;;;;;10315780;28;19963;-58
2021/09/28 12:50:13;;;;;;;;;;;;;;;;;;10316092;28;20309;-59
2021/09/28 12:55:11;;;;;;;;;;;;;;;;;;10323732;28;20285;-58
2021/09/28 13:00:09;;;;;;;;;;;;;;;;;;10323306;28;20354;-58
2021/09/28 13:05:08;;;;;;;;;;;;;;;;;;10323236;28;19955;-58
2021/09/28 13:10:06;;;;;;;;;;;;;;;;;;10323231;28;19920;-58
2021/09/28 13:15:03;;;;;;;;;;;;;;;;;;10322829;28;19924;-58
2021/09/28 13:20:02;;;;;;;;;;;;;;;;;;10322239;28;19920;-58
2021/09/28 13:25:00;;;;;;;;;;;;;;;;;;10322608;28;19959;-58
2021/09/28 13:29:58;;;;;;;;;;;;;;;;;;10323039;28;19920;-58
2021/09/28 13:34:56;;;;;;;;;;;;;;;;;;10321573;28;19928;-58
2021/09/28 13:39:54;;;;;;;;;;;;;;;;;;10321947;28;19928;-58
2021/09/28 13:44:52;;;;;;;;;;;;;;;;;;10321343;28;19970;-58
2021/09/28 13:49:50;;;;;;;;;;;;;;;;;;10303528;28;20385;-58
2021/09/28 13:54:50;;;;;;;;;;;;;;;;;;10321385;28;20354;-58
2021/09/28 13:59:48;;;;;;;;;;;;;;;;;;10321029;28;19962;-58
2021/09/28 14:04:46;;;;;;;;;;;;;;;;;;10319637;28;20019;-57
2021/09/28 14:09:44;;;;;;;;;;;;;;;;;;10320739;28;19924;-58
2021/09/28 14:14:42;;;;;;;;;;;;;;;;;;10320533;28;19921;-58
2021/09/28 14:19:40;;;;;;;;;;;;;;;;;;10302518;28;19920;-58
2021/09/28 14:24:38;;;;;;;;;;;;;;;;;;10320042;28;19951;-58
2021/09/28 14:29:36;;;;;;;;;;;;;;;;;;10319716;28;19921;-58
2021/09/28 14:34:34;;;;;;;;;;;;;;;;;;10319576;28;19967;-58
2021/09/28 14:39:32;;;;;;;;;;;;;;;;;;10319381;28;20333;-58
2021/09/28 14:44:30;;;;;;;;;;;;;;;;;;10319083;28;19952;-58
2021/09/28 14:49:28;;;;;;;;;;;;;;;;;;10319151;28;19920;-57
2021/09/28 14:54:30;;;;;;;;;;;;;;;;;;10317804;28;19920;-57
2021/09/28 14:59:28;;;;;;;;;;;;;;;;;;10318530;28;19924;-58
2021/09/28 15:04:26;;;;;;;;;;;;;;;;;;10317831;28;19978;-59
2021/09/28 15:09:24;;;;;;;;;;;;;;;;;;10317697;28;20393;-59
2021/09/28 15:14:22;;;;;;;;;;;;;;;;;;10314419;28;20328;-59
2021/09/28 15:19:21;;;;;;;;;;;;;;;;;;10316049;28;19927;-57
2021/09/28 15:24:19;;;;;;;;;;;;;;;;;;10314773;28;20008;-57
2021/09/28 15:29:17;;;;;;;;;;;;;;;;;;10315750;28;19920;-55
2021/09/28 15:34:15;;;;;;;;;;;;;;;;;;10314718;28;19921;-57
2021/09/28 15:39:13;;;;;;;;;;;;;;;;;;10316289;28;19970;-57
2021/09/28 15:44:11;;;;;;;;;;;;;;;;;;10316584;28;19966;-56
2021/09/28 15:49:09;;;;;;;;;;;;;;;;;;10314865;28;19921;-56
2021/09/28 15:54:07;;;;;;;;;;;;;;;;;;10315934;28;19928;-59
2021/09/28 15:59:05;;;;;;;;;;;;;;;;;;10314396;28;19924;-57
2021/09/28 16:04:03;;;;;;;;;;;;;;;;;;10316413;28;19956;-57
2021/09/28 16:09:01;;;;;;;;;;;;;;;;;;10298145;28;19927;-57
2021/09/28 16:13:59;;;;;;;;;;;;;;;;;;10316026;28;19927;-57
2021/09/28 16:18:57;;;;;;;;;;;;;;;;;;10316390;28;19920;-58
2021/09/28 16:23:55;;;;;;;;;;;;;;;;;;10316441;28;19967;-58
2021/09/28 16:28:53;;;;;;;;;;;;;;;;;;10322405;28;19920;-56
2021/09/28 16:33:51;;;;;;;;;;;;;;;;;;10325472;28;19920;-58
2021/09/28 16:38:49;;;;;;;;;;;;;;;;;;10324691;28;20000;-58
2021/09/28 16:43:47;;;;;;;;;;;;;;;;;;10323154;28;19927;-55
2021/09/28 16:48:45;;;;;;;;;;;;;;;;;;10323112;28;19928;-58
2021/09/28 16:53:43;;;;;;;;;;;;;;;;;;10323697;28;19959;-57
2021/09/28 16:58:41;;;;;;;;;;;;;;;;;;10323869;28;19924;-58
2021/09/28 17:03:39;;;;;;;;;;;;;;;;;;10323211;28;19963;-59
2021/09/28 17:08:38;;;;;;;;;;;;;;;;;;10324038;28;19928;-57
2021/09/28 17:13:36;;;;;;;;;;;;;;;;;;10322945;28;19928;-58
2021/09/28 17:18:36;;;;;;;;;;;;;;;;;;10323499;28;20353;-57
2021/09/28 17:23:34;;;;;;;;;;;;;;;;;;10322405;28;19975;-56
2021/09/28 17:28:32;;;;;;;;;;;;;;;;;;10323057;28;20372;-58
2021/09/28 17:33:47;;;;;;;;;;;;;;;;;;10322238;28;19927;-56
2021/09/28 17:38:45;;;;;;;;;;;;;;;;;;10321147;28;19936;-58
2021/09/28 17:43:43;;;;;;;;;;;;;;;;;;10322463;28;19927;-58
2021/09/28 17:48:41;;;;;;;;;;;;;;;;;;10320751;28;19974;-59
2021/09/28 17:53:53;;;;;;;;;;;;;;;;;;10321005;28;19966;-58
2021/09/28 17:58:51;;;;;;;;;;;;;;;;;;10321219;28;19920;-58
2021/09/28 18:03:49;;;;;;;;;;;;;;;;;;10321292;28;20329;-57
2021/09/28 18:08:49;;;;;;;;;;;;;;;;;;10320437;28;20377;-58
2021/09/28 18:13:47;;;;;;;;;;;;;;;;;;10320550;28;19920;-58
2021/09/28 18:18:45;;;;;;;;;;;;;;;;;;10319738;28;20390;-57
2021/09/28 18:23:44;;;;;;;;;;;;;;;;;;10320636;28;19955;-58
2021/09/28 18:28:42;;;;;;;;;;;;;;;;;;10319266;28;19967;-59
2021/09/28 18:33:40;;;;;;;;;;;;;;;;;;10320082;28;19924;-58
2021/09/28 18:38:38;;;;;;;;;;;;;;;;;;10320096;28;19924;-53
2021/09/28 18:43:38;;;;;;;;;;;;;;;;;;10318827;28;20079;-58
2021/09/28 18:48:36;;;;;;;;;;;;;;;;;;10314078;28;20061;-57
2021/09/28 18:53:34;;;;;;;;;;;;;;;;;;10315155;28;20338;-57
2021/09/28 18:58:35;;;;;;;;;;;;;;;;;;10314097;28;19928;-56
2021/09/28 19:03:41;;;;;;;;;;;;;;;;;;10313551;28;19959;-55
2021/09/28 19:08:39;;;;;;;;;;;;;;;;;;10315720;28;19956;-56
2021/09/28 19:13:38;;;;;;;;;;;;;;;;;;10314247;28;19924;-57
2021/09/28 19:18:36;;;;;;;;;;;;;;;;;;10316124;28;20321;-57
2021/09/28 19:23:34;;;;;;;;;;;;;;;;;;10317292;28;19955;-58
2021/09/28 19:28:32;;;;;;;;;;;;;;;;;;10317302;28;19963;-57
2021/09/28 19:33:30;;;;;;;;;;;;;;;;;;10315960;28;20564;-56
2021/09/28 19:38:38;;;;;;;;;;;;;;;;;;10308074;28;20066;-58
2021/09/28 19:43:36;;;;;;;;;;;;;;;;;;10297964;28;19963;-52
2021/09/28 19:48:34;;;;;;;;;;;;;;;;;;10289405;28;19971;-56
2021/09/28 19:53:33;;;;;;;;;;;;;;;;;;10277556;28;19927;-56
2021/09/28 19:58:43;;;;;;;;;;;;;;;;;;10307058;28;19921;-54
2021/09/28 20:03:55;;;;;;;;;;;;;;;;;;10288242;28;20417;-55
2021/09/28 20:40:34;;;;;;;;;;;;;;;;;;10284828;28;20349;-57
2021/09/28 20:45:32;;;;;;;;;;;;;;;;;;10296139;28;20334;-57
2021/09/28 20:50:33;;;;;;;;;;;;;;;;;;10283449;28;19960;-55
2021/09/28 20:55:31;;;;;;;;;;;;;;;;;;10265579;28;20004;-55
2021/09/28 21:00:29;;;;;;;;;;;;;;;;;;10268341;28;20302;-58
2021/09/28 21:05:27;;;;;;;;;;;;;;;;;;10272154;28;19979;-56
2021/09/28 21:10:25;;;;;;;;;;;;;;;;;;10269356;28;19925;-58
2021/09/28 21:15:23;;;;;;;;;;;;;;;;;;10282579;28;19931;-54
2021/09/28 21:20:21;;;;;;;;;;;;;;;;;;10294287;28;20330;-57
2021/09/28 21:25:19;;;;;;;;;;;;;;;;;;10314438;28;20305;-55
2021/09/28 21:30:17;;;;;;;;;;;;;;;;;;10294127;28;20341;-56
2021/09/28 21:35:21;;;;;;;;;;;;;;;;;;10281373;28;20299;-54
2021/09/28 21:40:20;;;;;;;;;;;;;;;;;;10294481;28;19975;-56
2021/09/28 21:45:18;;;;;;;;;;;;;;;;;;10296242;28;19970;-56
2021/09/28 21:50:17;;;;;;;;;;;;;;;;;;10282974;28;19964;-56
2021/09/28 21:55:15;;;;;;;;;;;;;;;;;;10285064;28;19944;-54
2021/09/28 22:00:15;;;;;;;;;;;;;;;;;;10274617;28;19964;-56
2021/09/28 22:05:13;;;;;;;;;;;;;;;;;;10273692;28;19920;-57
2021/09/28 22:10:11;;;;;;;;;;;;;;;;;;10273838;28;19920;-55
2021/09/28 22:15:09;;;;;;;;;;;;;;;;;;10272495;28;19920;-56
2021/09/28 22:20:07;;;;;;;;;;;;;;;;;;10271659;28;20364;-55
2021/09/28 22:25:05;;;;;;;;;;;;;;;;;;10281329;28;20277;-55
2021/09/28 22:30:03;;;;;;;;;;;;;;;;;;10270897;28;20400;-55
2021/09/28 22:35:01;;;;;;;;;;;;;;;;;;10270345;28;20388;-57
2021/09/28 22:39:59;;;;;;;;;;;;;;;;;;10280782;28;19944;-53
2021/09/28 22:44:57;;;;;;;;;;;;;;;;;;10269381;28;19920;-55
2021/09/28 22:49:55;;;;;;;;;;;;;;;;;;10270080;28;19979;-55
2021/09/28 22:54:53;;;;;;;;;;;;;;;;;;10282880;28;19978;-55
2021/09/28 22:59:57;;;;;;;;;;;;;;;;;;10281969;28;20015;-55
2021/09/28 23:04:55;;;;;;;;;;;;;;;;;;10274405;28;20361;-56
2021/09/28 23:09:53;;;;;;;;;;;;;;;;;;10270469;28;19960;-55
2021/09/28 23:14:51;;;;;;;;;;;;;;;;;;10272613;28;19921;-54
2021/09/28 23:19:49;;;;;;;;;;;;;;;;;;10273210;28;19920;-56
2021/09/28 23:24:47;;;;;;;;;;;;;;;;;;10271210;28;19929;-57
2021/09/28 23:29:45;;;;;;;;;;;;;;;;;;10270533;28;19956;-56
2021/09/28 23:34:43;;;;;;;;;;;;;;;;;;10269481;28;19920;-57
2021/09/28 23:39:41;;;;;;;;;;;;;;;;;;10271754;28;19928;-53
2021/09/28 23:44:39;;;;;;;;;;;;;;;;;;10282835;28;19968;-56
2021/09/28 23:49:37;;;;;;;;;;;;;;;;;;10291640;28;20039;-51
2021/09/28 23:54:35;;;;;;;;;;;;;;;;;;10270157;28;19924;-56
2021/09/28 23:59:33;;;;;;;;;;;;;;;;;;10270250;28;19955;-56
